Skip Navigation LinksHome page > Weather > Current weather Skip Navigation Links

Current Weather

Miami Intl, Miami

For information only: do not use for flight planning or navigation.
Latest weather
Observation time Monday, June 21, 2021 9:53 PM EDT
Local time Monday, June 21, 2021 10:15 PM EDT
Flight conditions Visual Meteorological Conditions
Winds
Wind direction Southeast (130°)
Wind speed 5 mph
Visibility 10 mi.
Sky condition
Ceiling 25,000 ft. overcast
Cloud layer overcast 25,000 ft.
Temperature 84°F
Dewpoint 76°F
Altimeter 30.07 in.Hg
Derived measurements
Relative humidity 77%
Heat index 93°F
Density altitude 1844 ft.
Sea-level pressure 30.06 in.Hg
Remarks
System requires maintenance.
Automated weather observing station with precipitation discriminator.
METAR KMIA 220153Z 13004KT 10SM OVC250 29/24 A3007 RMK AO2 SLP181 T02890244 $

Settings

Location code

InnerDrive.Weather 4.0.6770.0 Release CLR 4.0.30319.42000
Copyright ©2018 Inner Drive Technology. All rights reserved. Portions Copyright ©1986-2018 David Braverman.

Find weather

Site navigation


Skip Navigation Links

Place info

Page info

PayPal - The safer, easier way to pay online!

Return home.

Copyright ©2021 Inner Drive Technology. Purveyors of fine, hand-crafted computer software. Page printed 2021-06-22T02:15:45 UTC.